createdAt,value
2024-01-03T00:00:23.181Z,0.00
2024-01-03T00:01:23.208Z,0.00
2024-01-03T00:02:23.163Z,0.00
2024-01-03T00:03:23.183Z,0.00
2024-01-03T00:04:23.136Z,0.00
2024-01-03T00:05:23.223Z,0.00
2024-01-03T00:06:23.121Z,0.00
2024-01-03T00:07:23.108Z,0.00
2024-01-03T00:08:23.115Z,0.00
2024-01-03T00:09:23.085Z,0.00
2024-01-03T00:10:23.053Z,0.00
2024-01-03T00:11:23.154Z,0.00
2024-01-03T00:12:23.056Z,0.00
2024-01-03T00:13:23.060Z,0.00
2024-01-03T00:14:23.064Z,0.00
2024-01-03T00:15:23.031Z,0.00
2024-01-03T00:16:23.021Z,0.00
2024-01-03T00:17:23.223Z,0.00
2024-01-03T00:18:23.060Z,0.00
2024-01-03T00:19:23.132Z,0.00
2024-01-03T00:20:23.607Z,0.00
2024-01-03T00:21:22.954Z,0.00
2024-01-03T00:22:29.415Z,0.00
2024-01-03T00:23:23.987Z,0.00
2024-01-03T00:24:22.919Z,0.00
2024-01-03T00:25:22.902Z,0.00
2024-01-03T00:26:22.899Z,0.00
2024-01-03T00:27:22.873Z,0.00
2024-01-03T00:28:22.855Z,0.00
2024-01-03T00:29:23.893Z,0.00
2024-01-03T00:30:22.854Z,0.00
2024-01-03T00:31:22.853Z,0.00
2024-01-03T00:32:24.134Z,0.00
2024-01-03T00:33:22.950Z,0.00
2024-01-03T00:34:23.379Z,0.00
2024-01-03T00:35:22.895Z,0.00
2024-01-03T00:36:23.727Z,0.00
2024-01-03T00:37:23.734Z,0.00
2024-01-03T00:38:23.742Z,0.00
2024-01-03T00:39:22.767Z,0.00
2024-01-03T00:40:22.726Z,0.00
2024-01-03T00:41:22.805Z,0.00
2024-01-03T00:42:22.714Z,0.00
2024-01-03T00:43:22.752Z,0.00
2024-01-03T00:44:22.828Z,0.00
2024-01-03T00:45:22.699Z,0.00
2024-01-03T00:46:22.668Z,0.00
2024-01-03T00:47:22.704Z,0.00
2024-01-03T00:48:22.838Z,0.00
2024-01-03T00:49:22.677Z,0.00
2024-01-03T00:50:22.651Z,0.00
2024-01-03T00:51:22.617Z,0.00
2024-01-03T00:52:22.609Z,0.00
2024-01-03T00:53:22.691Z,0.00
2024-01-03T00:54:22.570Z,0.00
2024-01-03T00:55:22.598Z,0.00
2024-01-03T00:56:22.599Z,0.00
2024-01-03T00:57:22.550Z,0.00
2024-01-03T00:58:22.514Z,0.00
2024-01-03T00:59:22.636Z,0.00
2024-01-03T01:00:22.526Z,0.00
2024-01-03T01:01:22.525Z,0.00
2024-01-03T01:02:22.524Z,0.00
2024-01-03T01:03:22.495Z,0.00
2024-01-03T01:04:22.453Z,0.00
2024-01-03T01:05:22.580Z,0.00
2024-01-03T01:06:22.482Z,0.00
2024-01-03T01:07:22.460Z,0.00
2024-01-03T01:08:22.501Z,0.00
2024-01-03T01:09:22.435Z,0.00
2024-01-03T01:10:22.407Z,0.00
2024-01-03T01:11:22.451Z,0.00
2024-01-03T01:12:22.571Z,0.00
2024-01-03T01:13:22.394Z,0.00
2024-01-03T01:14:22.481Z,0.00
2024-01-03T01:15:22.368Z,0.00
2024-01-03T01:16:22.334Z,0.00
2024-01-03T01:17:22.473Z,0.00
2024-01-03T01:18:22.532Z,0.00
2024-01-03T01:19:22.420Z,0.00
2024-01-03T01:20:22.376Z,0.00
2024-01-03T01:21:22.339Z,0.00
2024-01-03T01:22:22.285Z,0.00
2024-01-03T01:23:22.445Z,0.00
2024-01-03T01:24:22.352Z,0.00
2024-01-03T01:25:22.411Z,0.00
2024-01-03T01:26:22.434Z,0.00
2024-01-03T01:27:22.326Z,0.00
2024-01-03T01:28:22.283Z,0.00
2024-01-03T01:29:22.348Z,0.00
2024-01-03T01:30:22.218Z,0.00
2024-01-03T01:31:22.186Z,0.00
2024-01-03T01:32:22.220Z,0.00
2024-01-03T01:33:22.393Z,0.00
2024-01-03T01:34:22.195Z,0.00
2024-01-03T01:35:22.225Z,0.00
2024-01-03T01:36:22.114Z,0.00
2024-01-03T01:37:22.110Z,0.00
2024-01-03T01:38:22.134Z,0.00
2024-01-03T01:39:22.088Z,0.00
2024-01-03T01:40:22.082Z,0.00
2024-01-03T01:41:22.153Z,0.00
2024-01-03T01:42:22.047Z,0.00
2024-01-03T01:43:22.063Z,0.00
2024-01-03T01:44:22.060Z,0.00
2024-01-03T01:45:22.034Z,0.00
2024-01-03T01:46:22.110Z,0.00
2024-01-03T01:47:22.073Z,0.00
2024-01-03T01:48:22.085Z,0.00
2024-01-03T01:49:22.020Z,0.00
2024-01-03T01:50:21.992Z,0.00
2024-01-03T01:51:21.972Z,0.00
2024-01-03T01:52:21.937Z,0.00
2024-01-03T01:53:22.005Z,0.00
2024-01-03T01:54:21.932Z,0.00
2024-01-03T01:55:21.903Z,0.00
2024-01-03T01:56:21.941Z,0.00
2024-01-03T01:57:21.880Z,0.00
2024-01-03T01:58:21.865Z,0.00
2024-01-03T01:59:21.946Z,0.00
2024-01-03T02:00:21.875Z,0.00
2024-01-03T02:01:21.848Z,0.00
2024-01-03T02:02:21.870Z,0.00
2024-01-03T02:03:21.840Z,0.00
2024-01-03T02:04:21.799Z,0.00
2024-01-03T02:05:21.927Z,0.00
2024-01-03T02:06:21.856Z,0.00
2024-01-03T02:07:21.787Z,0.00
2024-01-03T02:08:21.794Z,0.00
2024-01-03T02:09:21.769Z,0.00
2024-01-03T02:10:21.780Z,0.00
2024-01-03T02:11:21.830Z,0.00
2024-01-03T02:12:21.719Z,0.00
2024-01-03T02:13:21.728Z,0.00
2024-01-03T02:14:21.740Z,0.00
2024-01-03T02:15:21.743Z,0.00
2024-01-03T02:16:21.678Z,0.00
2024-01-03T02:17:21.730Z,0.00
2024-01-03T02:18:21.830Z,0.00
2024-01-03T02:19:21.727Z,0.00
2024-01-03T02:20:21.646Z,0.00
2024-01-03T02:21:21.663Z,0.00
2024-01-03T02:22:21.613Z,0.00
2024-01-03T02:23:21.718Z,0.00
2024-01-03T02:24:21.589Z,0.00
2024-01-03T02:25:21.604Z,0.00
2024-01-03T02:26:29.128Z,0.00
2024-01-03T02:27:23.536Z,0.00
2024-01-03T02:28:21.572Z,0.00
2024-01-03T02:29:21.735Z,0.00
2024-01-03T02:30:21.563Z,0.00
2024-01-03T02:31:21.526Z,0.00
2024-01-03T02:32:21.555Z,0.00
2024-01-03T02:33:21.653Z,0.00
2024-01-03T02:34:21.509Z,0.00
2024-01-03T02:35:21.636Z,0.00
2024-01-03T02:36:21.452Z,0.00
2024-01-03T02:37:21.447Z,0.00
2024-01-03T02:38:22.429Z,0.00
2024-01-03T02:39:21.439Z,0.00
2024-01-03T02:40:21.419Z,0.00
2024-01-03T02:41:21.513Z,0.00
2024-01-03T02:42:21.405Z,0.00
2024-01-03T02:43:21.396Z,0.00
2024-01-03T02:44:21.403Z,0.00
2024-01-03T02:45:21.360Z,0.00
2024-01-03T02:46:21.412Z,0.00
2024-01-03T02:47:21.399Z,0.00
2024-01-03T02:48:21.460Z,0.00
2024-01-03T02:49:21.405Z,0.00
2024-01-03T02:50:21.362Z,0.00
2024-01-03T02:51:21.326Z,0.00
2024-01-03T02:52:21.308Z,0.00
2024-01-03T02:53:21.326Z,0.00
2024-01-03T02:54:21.280Z,0.00
2024-01-03T02:55:21.251Z,0.00
2024-01-03T02:56:21.250Z,0.00
2024-01-03T02:57:21.281Z,0.00
2024-01-03T02:58:21.219Z,0.00
2024-01-03T02:59:21.365Z,0.00
2024-01-03T03:00:21.181Z,0.00
2024-01-03T03:01:21.211Z,0.00
2024-01-03T03:02:21.273Z,0.00
2024-01-03T03:03:21.202Z,0.00
2024-01-03T03:04:21.167Z,0.00
2024-01-03T03:05:21.196Z,0.00
2024-01-03T03:06:21.204Z,0.00
2024-01-03T03:07:21.132Z,0.00
2024-01-03T03:08:21.154Z,0.00
2024-01-03T03:09:21.242Z,0.00
2024-01-03T03:10:21.068Z,0.00
2024-01-03T03:11:21.151Z,0.00
2024-01-03T03:12:21.059Z,0.00
2024-01-03T03:13:21.114Z,0.00
2024-01-03T03:14:21.070Z,0.00
2024-01-03T03:15:22.022Z,0.00
2024-01-03T03:16:21.010Z,0.00
2024-01-03T03:17:21.086Z,0.00
2024-01-03T03:18:21.102Z,0.00
2024-01-03T03:19:21.093Z,0.00
2024-01-03T03:20:20.981Z,0.00
2024-01-03T03:21:20.973Z,0.00
2024-01-03T03:22:20.957Z,0.00
2024-01-03T03:23:21.044Z,0.00
2024-01-03T03:24:20.930Z,0.00
2024-01-03T03:25:20.935Z,0.00
2024-01-03T03:26:20.961Z,0.00
2024-01-03T03:27:20.927Z,0.00
2024-01-03T03:28:20.877Z,0.00
2024-01-03T03:29:21.010Z,0.00
2024-01-03T03:30:20.898Z,0.00
2024-01-03T03:31:20.867Z,0.00
2024-01-03T03:32:21.023Z,0.00
2024-01-03T03:33:20.940Z,0.00
2024-01-03T03:34:20.886Z,0.00
2024-01-03T03:35:20.921Z,0.00
2024-01-03T03:36:20.807Z,0.00
2024-01-03T03:37:20.802Z,0.00
2024-01-03T03:38:20.945Z,0.00
2024-01-03T03:39:20.779Z,0.00
2024-01-03T03:40:20.752Z,0.00
2024-01-03T03:41:20.838Z,0.00
2024-01-03T03:42:20.738Z,0.00
2024-01-03T03:43:20.747Z,0.00
2024-01-03T03:44:20.733Z,0.00
2024-01-03T03:45:20.725Z,0.00
2024-01-03T03:46:20.688Z,0.00
2024-01-03T03:47:20.757Z,0.00
2024-01-03T03:48:20.777Z,0.00
2024-01-03T03:49:20.720Z,0.00
2024-01-03T03:50:20.691Z,0.00
2024-01-03T03:51:20.644Z,0.00
2024-01-03T03:52:20.639Z,0.00
2024-01-03T03:53:20.682Z,0.00
2024-01-03T03:54:20.611Z,0.00
2024-01-03T03:55:20.597Z,0.00
2024-01-03T03:56:20.620Z,0.00
2024-01-03T03:57:20.569Z,0.00
2024-01-03T03:58:20.581Z,0.00
2024-01-03T03:59:20.617Z,0.00
2024-01-03T04:00:20.581Z,0.00
2024-01-03T04:01:20.545Z,0.00
2024-01-03T04:02:20.571Z,0.00
2024-01-03T04:03:20.559Z,0.00
2024-01-03T04:04:20.501Z,0.00
2024-01-03T04:05:20.681Z,0.00
2024-01-03T04:06:20.580Z,0.00
2024-01-03T04:07:20.516Z,0.00
2024-01-03T04:08:20.512Z,0.00
2024-01-03T04:09:20.497Z,0.00
2024-01-03T04:10:20.456Z,0.00
2024-01-03T04:11:20.489Z,0.00
2024-01-03T04:12:20.423Z,0.00
2024-01-03T04:13:20.493Z,0.00
2024-01-03T04:14:20.454Z,0.00
2024-01-03T04:15:20.377Z,0.00
2024-01-03T04:16:20.381Z,0.00
2024-01-03T04:17:20.429Z,0.00
2024-01-03T04:18:20.466Z,0.00
2024-01-03T04:19:20.348Z,0.00
2024-01-03T04:20:20.371Z,0.00
2024-01-03T04:21:20.311Z,0.00
2024-01-03T04:22:20.306Z,0.00
2024-01-03T04:23:20.365Z,0.00
2024-01-03T04:24:20.282Z,0.00
2024-01-03T04:25:20.259Z,0.00
2024-01-03T04:26:20.296Z,0.00
2024-01-03T04:27:20.249Z,0.00
2024-01-03T04:28:21.192Z,0.00
2024-01-03T04:29:20.308Z,0.00
2024-01-03T04:30:20.294Z,0.00
2024-01-03T04:31:20.197Z,0.00
2024-01-03T04:32:20.215Z,0.00
2024-01-03T04:33:20.565Z,0.00
2024-01-03T04:34:20.170Z,0.00
2024-01-03T04:35:20.229Z,0.00
2024-01-03T04:36:20.147Z,0.00
2024-01-03T04:37:20.144Z,0.00
2024-01-03T04:38:20.157Z,0.00
2024-01-03T04:39:20.114Z,0.00
2024-01-03T04:40:20.160Z,0.00
2024-01-03T04:41:20.246Z,0.00
2024-01-03T04:42:20.120Z,0.00
2024-01-03T04:43:20.061Z,0.00
2024-01-03T04:44:20.082Z,0.00
2024-01-03T04:45:20.045Z,0.00
2024-01-03T04:46:20.078Z,0.00
2024-01-03T04:47:20.063Z,0.00
2024-01-03T04:48:20.112Z,0.00
2024-01-03T04:49:20.098Z,0.00
2024-01-03T04:50:20.050Z,0.00
2024-01-03T04:51:20.633Z,0.00
2024-01-03T04:52:19.989Z,0.00
2024-01-03T04:53:20.033Z,0.00
2024-01-03T04:54:19.954Z,0.00
2024-01-03T04:55:19.940Z,0.00
2024-01-03T04:56:20.078Z,0.00
2024-01-03T04:57:20.766Z,0.00
2024-01-03T04:58:19.923Z,0.00
2024-01-03T04:59:19.942Z,0.00
2024-01-03T05:00:20.008Z,0.00
2024-01-03T05:01:19.872Z,0.00
2024-01-03T05:02:19.904Z,0.00
2024-01-03T05:03:19.974Z,0.00
2024-01-03T05:04:20.813Z,0.00
2024-01-03T05:05:19.900Z,0.00
2024-01-03T05:06:19.941Z,0.00
2024-01-03T05:07:19.801Z,0.00
2024-01-03T05:08:19.940Z,0.00
2024-01-03T05:09:19.773Z,0.00
2024-01-03T05:10:19.789Z,0.00
2024-01-03T05:11:19.815Z,0.00
2024-01-03T05:12:19.767Z,0.00
2024-01-03T05:13:19.736Z,0.00
2024-01-03T05:14:19.785Z,0.00
2024-01-03T05:15:19.796Z,0.00
2024-01-03T05:16:19.720Z,0.00
2024-01-03T05:17:19.807Z,0.00
2024-01-03T05:18:19.886Z,0.00
2024-01-03T05:19:19.840Z,0.00
2024-01-03T05:20:19.671Z,0.00
2024-01-03T05:21:19.657Z,0.00
2024-01-03T05:22:19.646Z,0.00
2024-01-03T05:23:19.673Z,0.00
2024-01-03T05:24:19.623Z,0.00
2024-01-03T05:25:19.597Z,0.00
2024-01-03T05:26:19.673Z,0.00
2024-01-03T05:27:19.583Z,0.00
2024-01-03T05:28:19.579Z,0.00
2024-01-03T05:29:19.648Z,0.00
2024-01-03T05:30:19.615Z,0.00
2024-01-03T05:31:19.532Z,0.00
2024-01-03T05:32:19.566Z,0.00
2024-01-03T05:33:19.573Z,0.00
2024-01-03T05:34:19.562Z,0.00
2024-01-03T05:35:19.563Z,0.00
2024-01-03T05:36:19.502Z,0.00
2024-01-03T05:37:19.486Z,0.00
2024-01-03T05:38:19.503Z,0.00
2024-01-03T05:39:19.446Z,0.00
2024-01-03T05:40:19.564Z,0.00
2024-01-03T05:41:19.565Z,0.00
2024-01-03T05:42:19.580Z,0.00
2024-01-03T05:43:19.419Z,0.00
2024-01-03T05:44:19.458Z,0.00
2024-01-03T05:45:19.390Z,0.00
2024-01-03T05:46:19.380Z,0.00
2024-01-03T05:47:19.442Z,0.00
2024-01-03T05:48:19.507Z,0.00
2024-01-03T05:49:19.528Z,0.00
2024-01-03T05:50:19.409Z,0.00
2024-01-03T05:51:19.322Z,0.00
2024-01-03T05:52:19.313Z,0.00
2024-01-03T05:53:19.367Z,0.00
2024-01-03T05:54:19.305Z,0.00
2024-01-03T05:55:19.291Z,0.00
2024-01-03T05:56:19.319Z,0.00
2024-01-03T05:57:19.300Z,0.00
2024-01-03T05:58:19.259Z,0.00
2024-01-03T05:59:19.328Z,0.00
2024-01-03T06:00:19.322Z,0.00
2024-01-03T06:01:19.282Z,0.00
2024-01-03T06:02:19.236Z,0.00
2024-01-03T06:03:19.277Z,0.00
2024-01-03T06:04:19.230Z,0.00
2024-01-03T06:05:19.337Z,0.00
2024-01-03T06:06:19.311Z,0.00
2024-01-03T06:07:19.636Z,0.00
2024-01-03T06:08:19.173Z,0.00
2024-01-03T06:09:19.122Z,0.00
2024-01-03T06:10:19.128Z,0.00
2024-01-03T06:11:19.194Z,0.00
2024-01-03T06:12:19.101Z,0.00
2024-01-03T06:13:19.078Z,0.00
2024-01-03T06:14:19.133Z,0.00
2024-01-03T06:15:19.075Z,0.00
2024-01-03T06:16:19.061Z,0.00
2024-01-03T06:17:19.110Z,0.00
2024-01-03T06:18:19.276Z,0.00
2024-01-03T06:19:19.084Z,0.00
2024-01-03T06:20:20.795Z,0.00
2024-01-03T06:21:18.994Z,0.00
2024-01-03T06:22:19.004Z,0.00
2024-01-03T06:23:19.116Z,0.00
2024-01-03T06:24:18.972Z,0.00
2024-01-03T06:25:18.956Z,0.00
2024-01-03T06:26:19.020Z,0.00
2024-01-03T06:27:18.987Z,0.00
2024-01-03T06:28:19.060Z,0.00
2024-01-03T06:29:18.993Z,0.00
2024-01-03T06:30:19.096Z,0.00
2024-01-03T06:31:18.936Z,0.00
2024-01-03T06:32:18.972Z,0.00
2024-01-03T06:33:19.188Z,0.00
2024-01-03T06:34:19.189Z,0.00
2024-01-03T06:35:18.902Z,0.00
2024-01-03T06:36:18.834Z,0.00
2024-01-03T06:37:18.814Z,0.00
2024-01-03T06:38:18.864Z,0.00
2024-01-03T06:39:18.800Z,0.00
2024-01-03T06:40:18.802Z,0.00
2024-01-03T06:41:18.869Z,0.00
2024-01-03T06:42:18.776Z,0.00
2024-01-03T06:43:18.758Z,0.00
2024-01-03T06:44:18.824Z,0.00
2024-01-03T06:45:18.735Z,0.00
2024-01-03T06:46:18.774Z,0.00
2024-01-03T06:47:18.751Z,0.00
2024-01-03T06:48:18.949Z,0.00
2024-01-03T06:49:18.780Z,0.00
2024-01-03T06:50:18.761Z,0.00
2024-01-03T06:51:18.697Z,0.00
2024-01-03T06:52:18.689Z,0.00
2024-01-03T06:53:18.738Z,0.00
2024-01-03T06:54:18.649Z,0.00
2024-01-03T06:55:18.626Z,0.00
2024-01-03T06:56:18.699Z,4.00
2024-01-03T06:57:18.600Z,0.00
2024-01-03T06:58:18.605Z,0.00
2024-01-03T06:59:18.662Z,4.00
2024-01-03T07:00:18.694Z,0.00
2024-01-03T07:01:18.615Z,4.00
2024-01-03T07:02:18.668Z,4.00
2024-01-03T07:03:18.679Z,4.00
2024-01-03T07:04:18.537Z,4.00
2024-01-03T07:05:18.604Z,4.00
2024-01-03T07:06:18.655Z,8.00
2024-01-03T07:07:18.554Z,12.00
2024-01-03T07:08:18.511Z,12.00
2024-01-03T07:09:18.471Z,12.00
2024-01-03T07:10:18.477Z,12.00
2024-01-03T07:11:18.619Z,12.00
2024-01-03T07:12:18.441Z,12.00
2024-01-03T07:13:18.428Z,16.00
2024-01-03T07:14:18.490Z,16.00
2024-01-03T07:15:18.412Z,20.00
2024-01-03T07:16:18.403Z,20.00
2024-01-03T07:17:18.457Z,24.00
2024-01-03T07:18:18.511Z,28.00
2024-01-03T07:19:18.489Z,28.00
2024-01-03T07:20:18.434Z,32.00
2024-01-03T07:21:18.341Z,40.00
2024-01-03T07:22:18.341Z,44.00
2024-01-03T07:23:18.472Z,52.00
2024-01-03T07:24:18.321Z,56.00
2024-01-03T07:25:18.297Z,52.00
2024-01-03T07:26:18.297Z,56.00
2024-01-03T07:27:18.280Z,52.00
2024-01-03T07:28:18.267Z,52.00
2024-01-03T07:29:18.299Z,52.00
2024-01-03T07:30:18.369Z,60.00
2024-01-03T07:31:18.243Z,72.00
2024-01-03T07:32:18.269Z,80.00
2024-01-03T07:33:18.263Z,80.00
2024-01-03T07:34:18.295Z,100.00
2024-01-03T07:35:18.356Z,108.00
2024-01-03T07:36:18.192Z,112.00
2024-01-03T07:37:18.155Z,88.00
2024-01-03T07:38:18.178Z,84.00
2024-01-03T07:39:18.203Z,88.00
2024-01-03T07:40:18.141Z,88.00
2024-01-03T07:41:18.166Z,84.00
2024-01-03T07:42:18.153Z,96.00
2024-01-03T07:43:18.122Z,132.00
2024-01-03T07:44:18.130Z,156.00
2024-01-03T07:45:18.068Z,196.00
2024-01-03T07:46:18.091Z,200.00
2024-01-03T07:47:18.143Z,168.00
2024-01-03T07:48:18.238Z,168.00
2024-01-03T07:49:18.155Z,212.00
2024-01-03T07:50:18.073Z,232.00
2024-01-03T07:51:18.008Z,264.00
2024-01-03T07:52:18.024Z,228.00
2024-01-03T07:53:18.046Z,216.00
2024-01-03T07:54:18.012Z,236.00
2024-01-03T07:55:17.985Z,260.00
2024-01-03T07:56:18.022Z,224.00
2024-01-03T07:57:17.947Z,216.00
2024-01-03T07:58:17.929Z,200.00
2024-01-03T07:59:18.001Z,240.00
2024-01-03T08:00:18.964Z,232.00
2024-01-03T08:01:17.978Z,212.00
2024-01-03T08:02:17.908Z,204.00
2024-01-03T08:03:17.921Z,216.00
2024-01-03T08:04:17.865Z,228.00
2024-01-03T08:05:18.045Z,216.00
2024-01-03T08:06:17.915Z,232.00
2024-01-03T08:07:17.847Z,220.00
2024-01-03T08:08:18.821Z,228.00
2024-01-03T08:09:17.835Z,312.00
2024-01-03T08:10:17.828Z,392.00
2024-01-03T08:11:17.890Z,464.00
2024-01-03T08:12:17.792Z,476.00
2024-01-03T08:13:17.805Z,432.00
2024-01-03T08:14:17.782Z,508.00
2024-01-03T08:15:17.764Z,520.00
2024-01-03T08:16:17.748Z,548.00
2024-01-03T08:17:17.852Z,504.00
2024-01-03T08:18:18.459Z,528.00
2024-01-03T08:19:17.880Z,524.00
2024-01-03T08:20:17.921Z,464.00
2024-01-03T08:21:17.738Z,508.00
2024-01-03T08:22:17.697Z,512.00
2024-01-03T08:23:17.759Z,620.00
2024-01-03T08:24:17.655Z,656.00
2024-01-03T08:25:17.655Z,664.00
2024-01-03T08:26:17.673Z,708.00
2024-01-03T08:27:17.627Z,692.00
2024-01-03T08:28:17.632Z,760.00
2024-01-03T08:29:17.656Z,724.00
2024-01-03T08:30:17.705Z,828.00
2024-01-03T08:31:17.578Z,888.00
2024-01-03T08:32:17.633Z,968.00
2024-01-03T08:33:17.703Z,1052.00
2024-01-03T08:34:17.684Z,1116.00
2024-01-03T08:35:17.642Z,1164.00
2024-01-03T08:36:17.621Z,1184.00
2024-01-03T08:37:17.544Z,1220.00
2024-01-03T08:38:17.492Z,1244.00
2024-01-03T08:39:17.505Z,1312.00
2024-01-03T08:40:17.497Z,1280.00
2024-01-03T08:41:17.743Z,1396.00
2024-01-03T08:42:17.465Z,1436.00
2024-01-03T08:43:18.413Z,1416.00
2024-01-03T08:44:17.478Z,1500.00
2024-01-03T08:45:17.447Z,1588.00
2024-01-03T08:46:17.426Z,1668.00
2024-01-03T08:47:17.533Z,1816.00
2024-01-03T08:48:17.708Z,1816.00
2024-01-03T08:49:17.558Z,1792.00
2024-01-03T08:50:17.487Z,1760.00
2024-01-03T08:51:17.421Z,1716.00
2024-01-03T08:52:17.373Z,1660.00
2024-01-03T08:53:17.508Z,1604.00
2024-01-03T08:54:17.333Z,1560.00
2024-01-03T08:55:17.322Z,1492.00
2024-01-03T08:56:17.615Z,1524.00
2024-01-03T08:57:17.296Z,1568.00
2024-01-03T08:58:17.277Z,1532.00
2024-01-03T08:59:17.366Z,1528.00
2024-01-03T09:00:17.294Z,1572.00
2024-01-03T09:01:17.336Z,1548.00
2024-01-03T09:02:17.226Z,1592.00
2024-01-03T09:03:17.267Z,1628.00
2024-01-03T09:04:17.249Z,1704.00
2024-01-03T09:05:17.260Z,1720.00
2024-01-03T09:06:17.378Z,1744.00
2024-01-03T09:07:17.279Z,1740.00
2024-01-03T09:08:18.212Z,1728.00
2024-01-03T09:09:17.189Z,1740.00
2024-01-03T09:10:17.153Z,1768.00
2024-01-03T09:11:17.185Z,1808.00
2024-01-03T09:12:17.133Z,1916.00
2024-01-03T09:13:17.129Z,2044.00
2024-01-03T09:14:17.128Z,2196.00
2024-01-03T09:15:17.139Z,2236.00
2024-01-03T09:16:17.113Z,2308.00
2024-01-03T09:17:17.108Z,2292.00
2024-01-03T09:18:17.481Z,2060.00
2024-01-03T09:19:17.219Z,1688.00
2024-01-03T09:20:17.055Z,1596.00
2024-01-03T09:21:17.049Z,1684.00
2024-01-03T09:22:17.030Z,1860.00
2024-01-03T09:23:17.057Z,1968.00
2024-01-03T09:24:17.030Z,2108.00
2024-01-03T09:25:17.004Z,2000.00
2024-01-03T09:26:16.985Z,1756.00
2024-01-03T09:27:16.974Z,1588.00
2024-01-03T09:28:16.952Z,1524.00
2024-01-03T09:29:17.022Z,1540.00
2024-01-03T09:30:17.017Z,1652.00
2024-01-03T09:31:16.945Z,1804.00
2024-01-03T09:32:16.920Z,1952.00
2024-01-03T09:33:17.013Z,2000.00
2024-01-03T09:34:17.096Z,1936.00
2024-01-03T09:35:16.919Z,1820.00
2024-01-03T09:36:16.875Z,1664.00
2024-01-03T09:37:16.876Z,1564.00
2024-01-03T09:38:16.864Z,1476.00
2024-01-03T09:39:16.853Z,1408.00
2024-01-03T09:40:16.826Z,1480.00
2024-01-03T09:41:16.885Z,1552.00
2024-01-03T09:42:16.973Z,1808.00
2024-01-03T09:43:17.074Z,2024.00
2024-01-03T09:44:16.793Z,2232.00
2024-01-03T09:45:16.875Z,2368.00
2024-01-03T09:46:16.765Z,2648.00
2024-01-03T09:47:16.795Z,2872.00
2024-01-03T09:48:17.156Z,3092.00
2024-01-03T09:49:16.886Z,3316.00
2024-01-03T09:50:16.805Z,3804.00
2024-01-03T09:51:16.712Z,3348.00
2024-01-03T09:52:16.698Z,3260.00
2024-01-03T09:53:16.843Z,2808.00
2024-01-03T09:54:16.684Z,2728.00
2024-01-03T09:55:16.670Z,2792.00
2024-01-03T09:56:16.653Z,2984.00
2024-01-03T09:57:16.649Z,3072.00
2024-01-03T09:58:16.622Z,3104.00
2024-01-03T09:59:16.665Z,3180.00
2024-01-03T10:00:16.754Z,3352.00
2024-01-03T10:01:16.731Z,3212.00
2024-01-03T10:02:16.582Z,2972.00
2024-01-03T10:03:16.685Z,2752.00
2024-01-03T10:04:16.554Z,2784.00
2024-01-03T10:05:16.591Z,2724.00
2024-01-03T10:06:19.470Z,2660.00
2024-01-03T10:07:16.566Z,2844.00
2024-01-03T10:08:16.564Z,3024.00
2024-01-03T10:09:16.501Z,3060.00
2024-01-03T10:10:16.512Z,3080.00
2024-01-03T10:11:16.758Z,3220.00
2024-01-03T10:12:16.510Z,2632.00
2024-01-03T10:13:16.479Z,2000.00
2024-01-03T10:14:16.464Z,1716.00
2024-01-03T10:15:16.463Z,1532.00
2024-01-03T10:16:16.456Z,1392.00
2024-01-03T10:17:16.469Z,1276.00
2024-01-03T10:18:18.136Z,1128.00
2024-01-03T10:19:16.642Z,1044.00
2024-01-03T10:20:16.411Z,944.00
2024-01-03T10:21:16.407Z,832.00
2024-01-03T10:22:16.361Z,852.00
2024-01-03T10:23:16.381Z,920.00
2024-01-03T10:24:16.336Z,852.00
2024-01-03T10:25:16.340Z,804.00
2024-01-03T10:26:16.336Z,860.00
2024-01-03T10:27:16.380Z,952.00
2024-01-03T10:28:16.340Z,856.00
2024-01-03T10:29:16.357Z,888.00
2024-01-03T10:30:16.366Z,988.00
2024-01-03T10:31:16.317Z,1080.00
2024-01-03T10:32:16.292Z,1092.00
2024-01-03T10:33:16.382Z,1024.00
2024-01-03T10:34:16.300Z,1012.00
2024-01-03T10:35:16.549Z,1052.00
2024-01-03T10:36:16.269Z,1152.00
2024-01-03T10:37:16.238Z,1280.00
2024-01-03T10:38:16.195Z,1396.00
2024-01-03T10:39:16.191Z,1504.00
2024-01-03T10:40:17.712Z,1400.00
2024-01-03T10:41:16.226Z,1572.00
2024-01-03T10:42:16.168Z,1516.00
2024-01-03T10:43:16.155Z,1480.00
2024-01-03T10:44:16.126Z,1564.00
2024-01-03T10:45:16.131Z,1488.00
2024-01-03T10:46:16.105Z,1540.00
2024-01-03T10:47:16.130Z,1728.00
2024-01-03T10:48:16.540Z,1860.00
2024-01-03T10:49:16.261Z,1888.00
2024-01-03T10:50:16.222Z,1632.00
2024-01-03T10:51:16.070Z,1692.00
2024-01-03T10:52:16.038Z,1768.00
2024-01-03T10:53:16.090Z,1704.00
2024-01-03T10:54:15.997Z,1624.00
2024-01-03T10:55:16.008Z,1604.00
2024-01-03T10:56:15.999Z,1236.00
2024-01-03T10:57:15.985Z,1180.00
2024-01-03T10:58:15.977Z,1140.00
2024-01-03T10:59:16.099Z,1096.00
2024-01-03T11:00:16.020Z,1208.00
2024-01-03T11:01:15.984Z,1524.00
2024-01-03T11:02:15.928Z,1316.00
2024-01-03T11:03:16.012Z,1060.00
2024-01-03T11:04:15.956Z,988.00
2024-01-03T11:05:16.010Z,880.00
2024-01-03T11:06:16.967Z,860.00
2024-01-03T11:07:15.935Z,1020.00
2024-01-03T11:08:15.880Z,1136.00
2024-01-03T11:09:17.877Z,1388.00
2024-01-03T11:10:15.845Z,1500.00
2024-01-03T11:11:15.864Z,1572.00
2024-01-03T11:12:15.939Z,1792.00
2024-01-03T11:13:15.822Z,1676.00
2024-01-03T11:14:15.788Z,1868.00
2024-01-03T11:15:15.903Z,2068.00
2024-01-03T11:16:15.760Z,2300.00
2024-01-03T11:17:15.818Z,2048.00
2024-01-03T11:18:16.180Z,2564.00
2024-01-03T11:19:15.875Z,2768.00
2024-01-03T11:20:15.746Z,2804.00
2024-01-03T11:21:15.717Z,2892.00
2024-01-03T11:22:15.728Z,2300.00
2024-01-03T11:23:15.770Z,2328.00
2024-01-03T11:24:15.709Z,2008.00
2024-01-03T11:25:15.689Z,2228.00
2024-01-03T11:26:15.671Z,2352.00
2024-01-03T11:27:15.666Z,1996.00
2024-01-03T11:28:15.642Z,1804.00
2024-01-03T11:29:15.678Z,1824.00
2024-01-03T11:30:15.729Z,2076.00
2024-01-03T11:31:15.680Z,2284.00
2024-01-03T11:32:15.606Z,2572.00
2024-01-03T11:33:15.732Z,2572.00
2024-01-03T11:34:15.712Z,2544.00
2024-01-03T11:35:15.611Z,2396.00
2024-01-03T11:36:15.561Z,2704.00
2024-01-03T11:37:15.580Z,2908.00
2024-01-03T11:38:15.540Z,3144.00
2024-01-03T11:39:15.561Z,3204.00
2024-01-03T11:40:15.516Z,2944.00
2024-01-03T11:41:15.565Z,2572.00
2024-01-03T11:42:15.502Z,2144.00
2024-01-03T11:43:15.505Z,1988.00
2024-01-03T11:44:15.510Z,2036.00
2024-01-03T11:45:16.096Z,1980.00
2024-01-03T11:46:15.466Z,1692.00
2024-01-03T11:47:15.575Z,1740.00
2024-01-03T11:48:15.956Z,2036.00
2024-01-03T11:49:16.118Z,2208.00
2024-01-03T11:50:15.406Z,2752.00
2024-01-03T11:51:15.444Z,2148.00
2024-01-03T11:52:15.397Z,2224.00
2024-01-03T11:53:15.422Z,2404.00
2024-01-03T11:54:15.349Z,2820.00
2024-01-03T11:55:15.372Z,2740.00
2024-01-03T11:56:15.341Z,2700.00
2024-01-03T11:57:15.439Z,3132.00
2024-01-03T11:58:15.323Z,3060.00
2024-01-03T11:59:15.396Z,3436.00
2024-01-03T12:00:16.337Z,3892.00
2024-01-03T12:01:15.358Z,3920.00
2024-01-03T12:02:15.281Z,3664.00
2024-01-03T12:03:15.564Z,3696.00
2024-01-03T12:04:15.277Z,3444.00
2024-01-03T12:05:15.338Z,2704.00
2024-01-03T12:06:15.340Z,2036.00
2024-01-03T12:07:15.255Z,1392.00
2024-01-03T12:08:16.186Z,1464.00
2024-01-03T12:09:15.221Z,1604.00
2024-01-03T12:10:15.209Z,1628.00
2024-01-03T12:11:15.223Z,1764.00
2024-01-03T12:12:15.170Z,2376.00
2024-01-03T12:13:15.171Z,2684.00
2024-01-03T12:14:15.167Z,3092.00
2024-01-03T12:15:15.156Z,3268.00
2024-01-03T12:16:15.148Z,3024.00
2024-01-03T12:17:15.169Z,2808.00
2024-01-03T12:18:15.462Z,2672.00
2024-01-03T12:19:15.233Z,2728.00
2024-01-03T12:20:15.124Z,2628.00
2024-01-03T12:21:15.134Z,2596.00
2024-01-03T12:22:15.068Z,2360.00
2024-01-03T12:23:15.291Z,2192.00
2024-01-03T12:24:15.056Z,1848.00
2024-01-03T12:25:15.027Z,2240.00
2024-01-03T12:26:15.387Z,2576.00
2024-01-03T12:27:15.010Z,1764.00
2024-01-03T12:28:14.999Z,1272.00
2024-01-03T12:29:15.023Z,1584.00
2024-01-03T12:30:15.112Z,1980.00
2024-01-03T12:31:14.989Z,2248.00
2024-01-03T12:32:15.040Z,1864.00
2024-01-03T12:33:15.646Z,1896.00
2024-01-03T12:34:15.071Z,2364.00
2024-01-03T12:35:15.210Z,2132.00
2024-01-03T12:36:14.954Z,1824.00
2024-01-03T12:37:14.907Z,1972.00
2024-01-03T12:38:14.899Z,2252.00
2024-01-03T12:39:14.884Z,2732.00
2024-01-03T12:40:14.871Z,3524.00
2024-01-03T12:41:14.902Z,3272.00
2024-01-03T12:42:20.399Z,3164.00
2024-01-03T12:43:18.349Z,3868.00
2024-01-03T12:44:14.825Z,3712.00
2024-01-03T12:45:14.856Z,2828.00
2024-01-03T12:46:14.808Z,2748.00
2024-01-03T12:47:14.840Z,3516.00
2024-01-03T12:48:15.354Z,3296.00